KGNT/GNT METAR and TAF weather

Enter ICAO airport designator
Station Type Date Time Source
KGNT METAR 2020/01/23 09:15 UTC NOAA

KGNT 230915Z AUTO 36006KT 10SM CLR M04/M04 A3020 RMK AO2 T10391043


Station Type Date Time Source
KGNT Decoded METAR 2020/01/23 09:15 UTC NOAA

GRANTS-MILAN MUNICIPAL AIRPORT , NM, United States (KGNT) 35-10N 107-54W 1987M
Jan 23, 2020 - 04:15 AM EST / 2020.01.23 0915 UTC
Wind: from the N (360 degrees) at 7 MPH (6 KT):0
Visibility: 10 mile(s):0
Sky conditions: clear
Temperature: 25.0 F (-3.9 C)
Windchill: 17 F (-8 C):1
Dew Point: 24.3 F (-4.3 C)
Relative Humidity: 97%
Pressure (altimeter): 30.2 in. Hg (1022 hPa)
ob: KGNT 230915Z AUTO 36006KT 10SM CLR M04/M04 A3020 RMK AO2 T10391043
cycle: 9

Station Type Date Time Source
KGNT TAF UTC NOAA

Error!

Example: see airport list